Time;durP1;ratioP1;P1;durP2;ratioP2;P2;SDS_P1;SDS_P2;PMS_P1;PMS_P2;Temp;Humidity;BMP_temperature;BMP_pressure;BME280_temperature;BME280_humidity;BME280_pressure;Samples;Min_cycle;Max_cycle;Signal;HPM_P1;HPM_P2
2023/04/28 00:00:18;;;;;;;70.40;49.10;;;;;;;3.04;99.85;99409.10;109366;1254;65227;-72
2023/04/28 00:03:04;;;;;;;64.80;47.60;;;;;;;3.06;99.98;99409.77;109578;1253;59214;-72
2023/04/28 00:05:30;;;;;;;72.70;47.70;;;;;;;3.04;100.00;99410.17;109532;1252;62950;-73
2023/04/28 00:07:57;;;;;;;75.10;50.10;;;;;;;3.01;100.00;99409.57;109474;1252;58138;-72
2023/04/28 00:10:23;;;;;;;71.40;51.10;;;;;;;2.98;100.00;99406.84;109396;1252;58225;-71
2023/04/28 01:26:24;;;;;;;79.10;57.00;;;;;;;2.26;100.00;99409.90;109518;1253;64149;-72
2023/04/28 01:28:51;;;;;;;79.30;59.20;;;;;;;2.24;100.00;99410.85;109335;1254;60193;-72
2023/04/28 01:31:17;;;;;;;79.50;59.80;;;;;;;2.20;100.00;99410.05;109316;1254;64460;-72
2023/04/28 01:33:44;;;;;;;82.50;60.90;;;;;;;2.14;100.00;99410.04;109309;1254;58198;-71
2023/04/28 01:36:10;;;;;;;76.10;60.00;;;;;;;2.08;100.00;99411.58;109304;1254;58386;-71
2023/04/28 01:38:37;;;;;;;80.30;59.10;;;;;;;2.04;100.00;99410.30;109179;1254;58795;-72
2023/04/28 01:41:04;;;;;;;83.50;60.50;;;;;;;1.99;100.00;99413.76;109305;1256;58399;-72
2023/04/28 01:43:31;;;;;;;80.20;62.10;;;;;;;1.95;100.00;99407.89;109311;1254;64337;-71
2023/04/28 03:46:44;;;;;;;63.40;49.90;;;;;;;1.13;100.00;99398.28;109560;1250;59838;-71
2023/04/28 03:49:11;;;;;;;67.70;52.40;;;;;;;1.17;100.00;99397.67;109563;1251;64136;-73
2023/04/28 03:51:37;;;;;;;70.00;53.90;;;;;;;1.22;100.00;99399.46;109538;1251;58149;-73
2023/04/28 03:54:04;;;;;;;60.70;50.00;;;;;;;1.36;100.00;99392.86;109559;1251;58192;-72
2023/04/28 03:56:30;;;;;;;62.80;49.80;;;;;;;1.57;100.00;99387.98;109553;1251;64088;-72
2023/04/28 03:58:57;;;;;;;61.10;50.60;;;;;;;1.99;100.00;99383.27;109432;1251;61329;-71
2023/04/28 04:01:25;;;;;;;66.60;49.40;;;;;;;2.53;100.00;99378.46;109568;1251;62872;-71
2023/04/28 04:03:53;;;;;;;56.60;47.00;;;;;;;3.03;100.00;99375.27;109386;1253;58182;-72
2023/04/28 04:06:20;;;;;;;53.60;44.00;;;;;;;3.59;100.00;99368.23;109385;1254;58247;-72
2023/04/28 04:08:47;;;;;;;52.40;41.20;;;;;;;4.15;100.00;99362.67;109358;1253;65261;-72
2023/04/28 04:11:13;;;;;;;45.20;37.40;;;;;;;4.75;100.00;99361.04;109389;1253;60113;-72
2023/04/28 04:13:40;;;;;;;46.80;38.50;;;;;;;5.32;100.00;99359.02;109393;1253;62902;-72
2023/04/28 04:16:06;;;;;;;40.90;36.40;;;;;;;5.88;100.00;99356.74;109334;1253;58357;-72
2023/04/28 04:18:33;;;;;;;35.80;31.80;;;;;;;6.44;99.60;99359.84;109330;1253;58219;-72
2023/04/28 04:20:59;;;;;;;36.20;32.30;;;;;;;7.00;96.44;99357.84;109400;1253;58782;-72
2023/04/28 04:23:26;;;;;;;35.90;31.60;;;;;;;7.50;93.18;99357.91;109412;1253;60248;-72
2023/04/28 04:25:52;;;;;;;34.60;30.70;;;;;;;7.98;90.71;99359.27;109084;1254;58553;-72
2023/04/28 04:28:19;;;;;;;32.40;27.80;;;;;;;8.51;88.73;99359.55;109377;1253;58225;-72
2023/04/28 04:30:45;;;;;;;32.00;28.80;;;;;;;8.99;85.99;99360.73;109384;1253;58279;-73
2023/04/28 04:33:12;;;;;;;30.60;27.60;;;;;;;9.40;84.15;99359.35;109352;1253;58928;-72
2023/04/28 04:35:38;;;;;;;27.90;25.10;;;;;;;9.80;82.40;99358.30;109345;1253;58341;-72
2023/04/28 04:38:06;;;;;;;28.00;25.20;;;;;;;9.99;80.83;99360.63;109352;1253;58223;-73
2023/04/28 04:40:32;;;;;;;27.20;24.40;;;;;;;10.27;79.39;99360.20;109374;1253;58240;-72
2023/04/28 04:43:00;;;;;;;26.40;23.60;;;;;;;10.58;77.77;99361.35;109613;1251;58133;-72
2023/04/28 04:45:27;;;;;;;23.90;21.50;;;;;;;10.78;76.63;99359.91;109579;1250;63643;-73
2023/04/28 04:47:54;;;;;;;24.30;21.80;;;;;;;11.05;75.78;99361.78;109570;1251;59666;-72
2023/04/28 04:50:20;;;;;;;24.80;22.40;;;;;;;11.35;74.46;99362.72;109537;1251;64070;-75
2023/04/28 04:52:47;;;;;;;25.70;23.00;;;;;;;11.62;73.75;99356.05;109546;1250;58117;-72
2023/04/28 04:55:13;;;;;;;25.90;21.00;;;;;;;11.91;72.15;99351.98;109639;1251;58328;-73
2023/04/28 04:57:40;;;;;;;24.80;21.30;;;;;;;12.03;71.07;99349.61;109355;1251;64039;-73
2023/04/28 05:00:07;;;;;;;23.40;21.00;;;;;;;12.07;70.29;99351.07;109531;1251;58114;-74
2023/04/28 05:02:33;;;;;;;21.20;19.00;;;;;;;12.11;69.38;99353.19;109547;1251;64123;-73
2023/04/28 05:05:00;;;;;;;21.30;19.10;;;;;;;12.23;68.96;99351.63;109535;1251;58230;-72
2023/04/28 05:07:26;;;;;;;23.20;20.30;;;;;;;12.40;68.35;99353.17;109624;1251;58363;-72
2023/04/28 05:09:52;;;;;;;22.70;20.50;;;;;;;12.57;67.94;99353.27;109342;1251;58777;-71
2023/04/28 05:12:19;;;;;;;24.40;19.70;;;;;;;12.69;67.05;99354.01;109549;1250;58220;-72
2023/04/28 05:14:45;;;;;;;22.40;18.80;;;;;;;12.81;66.36;99358.48;109211;1251;58265;-73
2023/04/28 05:17:12;;;;;;;20.30;18.20;;;;;;;12.94;65.67;99357.75;109539;1251;58167;-73
2023/04/28 05:19:39;;;;;;;21.70;18.80;;;;;;;12.99;65.01;99359.56;109556;1253;58214;-73
2023/04/28 05:22:06;;;;;;;21.40;17.60;;;;;;;13.07;64.21;99365.23;109529;1251;58625;-73
2023/04/28 05:24:32;;;;;;;24.20;17.60;;;;;;;13.08;63.46;99362.25;109573;1251;60636;-73
2023/04/28 05:27:00;;;;;;;23.40;18.40;;;;;;;13.08;63.25;99361.59;109548;1251;58198;-73
2023/04/28 05:29:27;;;;;;;20.60;16.70;;;;;;;13.08;62.82;99360.13;109416;1250;58202;-73
2023/04/28 05:31:53;;;;;;;18.70;15.10;;;;;;;13.04;62.19;99360.48;109573;1251;58089;-73
2023/04/28 05:34:20;;;;;;;20.60;16.50;;;;;;;13.06;61.92;99360.84;109558;1251;58809;-73
2023/04/28 05:36:46;;;;;;;20.40;15.80;;;;;;;13.08;61.59;99359.96;109562;1250;58734;-72
2023/04/28 05:39:13;;;;;;;17.30;15.40;;;;;;;13.09;61.33;99360.80;109598;1251;62915;-73
2023/04/28 05:41:39;;;;;;;19.70;15.40;;;;;;;13.10;60.69;99356.10;109216;1251;58262;-71
2023/04/28 05:44:06;;;;;;;16.50;14.90;;;;;;;13.15;60.56;99360.89;109585;1251;58387;-71
2023/04/28 05:46:33;;;;;;;20.40;15.50;;;;;;;13.28;60.40;99359.63;109398;1251;58376;-72
2023/04/28 05:48:59;;;;;;;17.60;15.70;;;;;;;13.42;59.85;99357.61;109591;1251;60137;-72
2023/04/28 05:51:26;;;;;;;18.10;16.10;;;;;;;13.53;59.63;99356.42;109533;1251;63290;-72
2023/04/28 05:53:52;;;;;;;19.40;15.80;;;;;;;13.75;59.29;99356.19;109171;1251;58214;-72
2023/04/28 05:56:19;;;;;;;18.10;16.20;;;;;;;13.96;58.82;99359.80;109564;1250;58227;-72
2023/04/28 05:58:46;;;;;;;18.20;16.00;;;;;;;14.08;58.44;99357.67;109321;1254;64089;-72
2023/04/28 06:01:13;;;;;;;18.40;15.00;;;;;;;14.22;57.17;99355.02;109308;1254;60190;-72
2023/04/28 06:03:40;;;;;;;17.20;15.50;;;;;;;14.29;56.65;99352.31;109037;1254;62978;-73
2023/04/28 06:06:08;;;;;;;19.40;15.20;;;;;;;14.24;56.28;99354.66;109295;1254;58240;-72
2023/04/28 06:08:34;;;;;;;17.30;14.50;;;;;;;14.27;55.83;99356.76;109359;1254;58261;-73
2023/04/28 06:11:00;;;;;;;16.50;14.80;;;;;;;14.29;55.45;99357.33;109086;1254;65240;-72
2023/04/28 06:13:27;;;;;;;16.60;14.30;;;;;;;14.25;55.40;99358.88;109356;1254;58530;-73
2023/04/28 06:15:54;;;;;;;20.70;15.50;;;;;;;14.31;55.34;99357.86;109323;1254;63100;-72
2023/04/28 06:18:22;;;;;;;19.80;15.10;;;;;;;14.53;54.85;99357.09;109349;1254;58249;-72
2023/04/28 06:20:49;;;;;;;20.20;14.60;;;;;;;14.47;54.72;99358.04;109355;1254;58220;-72
2023/04/28 06:23:15;;;;;;;17.70;14.00;;;;;;;14.35;54.33;99359.71;109368;1254;65335;-72
2023/04/28 06:25:42;;;;;;;19.20;15.00;;;;;;;14.17;54.30;99360.73;109371;1254;60086;-72
2023/04/28 06:28:08;;;;;;;19.10;14.80;;;;;;;14.12;54.54;99357.89;109325;1254;64059;-73
2023/04/28 06:30:35;;;;;;;18.50;15.30;;;;;;;14.09;54.60;99357.77;109512;1251;58168;-73
2023/04/28 06:33:02;;;;;;;16.30;14.10;;;;;;;14.05;54.40;99354.86;109594;1251;58237;-72
2023/04/28 06:35:28;;;;;;;17.90;14.80;;;;;;;13.95;54.06;99352.70;109626;1251;64919;-71
2023/04/28 06:37:55;;;;;;;15.10;13.60;;;;;;;13.84;54.19;99348.54;109598;1251;60093;-71
2023/04/28 06:40:21;;;;;;;22.40;15.40;;;;;;;13.82;54.41;99348.68;109544;1251;62865;-72
2023/04/28 06:42:48;;;;;;;17.60;13.70;;;;;;;13.84;54.74;99350.71;109606;1251;58171;-73
2023/04/28 06:45:15;;;;;;;15.60;12.80;;;;;;;13.91;54.65;99354.66;109252;1251;58235;-72
2023/04/28 06:47:42;;;;;;;17.70;13.10;;;;;;;13.93;54.38;99352.02;109589;1251;64044;-75
2023/04/28 06:50:08;;;;;;;16.70;12.90;;;;;;;13.95;54.58;99352.42;109658;1250;58811;-71
2023/04/28 06:52:35;;;;;;;16.10;12.90;;;;;;;14.09;54.64;99353.66;109542;1251;64101;-71
2023/04/28 06:55:02;;;;;;;15.70;13.80;;;;;;;14.20;54.60;99352.66;109568;1251;58243;-71
2023/04/28 06:57:28;;;;;;;15.20;12.80;;;;;;;14.34;54.47;99346.09;109580;1251;58165;-71
2023/04/28 06:59:55;;;;;;;15.70;14.00;;;;;;;14.48;54.19;99346.61;109340;1251;58585;-71
2023/04/28 07:02:21;;;;;;;18.40;14.30;;;;;;;14.63;54.03;99341.33;109620;1251;59274;-71
2023/04/28 07:04:48;;;;;;;17.30;15.10;;;;;;;14.63;53.60;99339.15;109475;1251;64157;-71
2023/04/28 07:07:14;;;;;;;23.90;21.10;;;;;;;14.68;53.74;99340.35;109587;1251;58143;-71
2023/04/28 07:09:41;;;;;;;22.40;17.20;;;;;;;14.78;53.39;99341.73;109631;1251;58124;-70
2023/04/28 07:12:07;;;;;;;24.40;13.50;;;;;;;14.82;52.93;99340.00;109567;1251;64004;-70
2023/04/28 07:14:34;;;;;;;18.30;12.70;;;;;;;14.88;52.97;99339.38;109606;1250;58561;-70
2023/04/28 07:17:01;;;;;;;15.10;11.50;;;;;;;14.98;53.13;99337.84;109572;1251;62830;-71
2023/04/28 07:19:28;;;;;;;15.30;12.20;;;;;;;15.15;53.34;99336.46;109602;1251;58136;-70
2023/04/28 07:21:54;;;;;;;18.00;12.20;;;;;;;15.24;52.78;99335.58;109141;1251;58178;-72
2023/04/28 07:24:22;;;;;;;13.40;11.70;;;;;;;15.26;52.70;99333.79;109607;1251;58534;-71
2023/04/28 07:26:49;;;;;;;14.70;11.90;;;;;;;15.31;52.58;99333.61;109637;1251;58927;-71
2023/04/28 07:29:15;;;;;;;14.00;12.10;;;;;;;15.31;52.34;99332.12;109547;1251;65296;-71
2023/04/28 07:31:42;;;;;;;19.20;12.00;;;;;;;15.28;51.91;99328.80;109514;1251;58468;-70
2023/04/28 07:34:08;;;;;;;13.70;12.10;;;;;;;15.23;51.86;99327.95;109595;1251;58367;-71
2023/04/28 07:36:35;;;;;;;18.00;12.20;;;;;;;15.16;51.97;99327.63;109571;1251;58365;-71
2023/04/28 07:39:02;;;;;;;11.50;10.00;;;;;;;15.24;52.21;99317.48;109243;1251;60206;-71
2023/04/28 07:41:28;;;;;;;16.80;10.90;;;;;;;15.20;51.03;99315.33;109589;1251;64049;-70
2023/04/28 07:43:55;;;;;;;23.90;12.10;;;;;;;15.05;50.79;99314.58;109326;1251;58232;-70
2023/04/28 07:46:22;;;;;;;10.20;9.20;;;;;;;14.96;50.57;99313.67;109605;1251;58092;-69
2023/04/28 07:48:49;;;;;;;10.20;8.30;;;;;;;14.84;49.71;99310.66;109616;1251;65212;-70
2023/04/28 07:51:15;;;;;;;13.50;9.20;;;;;;;14.74;49.78;99310.27;109569;1250;58947;-70
2023/04/28 07:53:42;;;;;;;11.80;9.10;;;;;;;14.75;49.80;99305.16;109329;1251;64972;-70
2023/04/28 07:56:08;;;;;;;13.20;9.30;;;;;;;14.80;50.37;99306.71;109561;1251;58176;-70
2023/04/28 07:58:35;;;;;;;12.50;8.50;;;;;;;14.95;50.11;99306.23;109628;1251;58055;-70
2023/04/28 08:01:02;;;;;;;9.60;8.20;;;;;;;15.03;49.61;99307.20;109363;1250;64021;-70
2023/04/28 08:03:28;;;;;;;10.20;8.20;;;;;;;15.12;49.31;99301.84;109351;1251;58999;-71
2023/04/28 08:05:55;;;;;;;8.50;5.80;;;;;;;15.21;48.80;99299.30;109520;1251;58250;-70
2023/04/28 08:08:22;;;;;;;10.60;8.40;;;;;;;15.39;48.76;99300.90;109413;1251;58467;-70
2023/04/28 08:10:49;;;;;;;9.80;7.40;;;;;;;15.53;48.31;99297.21;109544;1251;58521;-70
2023/04/28 08:13:16;;;;;;;7.90;7.00;;;;;;;15.51;47.61;99296.13;109237;1251;64023;-71
2023/04/28 08:15:42;;;;;;;10.10;8.40;;;;;;;15.47;47.78;99295.02;109585;1251;58195;-71
2023/04/28 08:18:09;;;;;;;9.30;8.00;;;;;;;15.46;47.43;99292.02;109338;1251;62888;-71
2023/04/28 08:20:35;;;;;;;9.90;7.40;;;;;;;15.43;46.92;99290.84;109561;1251;58108;-71
2023/04/28 08:23:02;;;;;;;10.40;7.90;;;;;;;15.48;47.16;99288.52;109643;1251;58269;-71
2023/04/28 08:25:28;;;;;;;8.80;7.10;;;;;;;15.61;47.22;99287.63;109253;1251;65242;-71
2023/04/28 08:27:56;;;;;;;7.10;5.80;;;;;;;15.73;46.40;99286.45;109560;1251;60105;-72
2023/04/28 08:30:22;;;;;;;8.60;5.60;;;;;;;15.79;46.00;99285.39;109562;1251;64077;-70
2023/04/28 08:32:49;;;;;;;8.50;6.20;;;;;;;15.87;46.00;99278.27;109554;1251;58155;-71
2023/04/28 08:35:16;;;;;;;9.50;6.10;;;;;;;15.98;46.30;99271.09;109419;1251;58222;-70
2023/04/28 08:37:43;;;;;;;8.20;5.70;;;;;;;16.08;46.12;99269.88;109590;1251;65253;-71
2023/04/28 08:40:10;;;;;;;9.80;6.60;;;;;;;16.20;46.38;99269.75;109614;1251;59021;-70
2023/04/28 08:42:37;;;;;;;7.40;5.90;;;;;;;16.36;46.44;99268.39;109596;1251;64150;-70
2023/04/28 08:45:07;;;;;;;8.20;6.20;;;;;;;16.49;45.93;99266.77;109373;1251;58208;-70
2023/04/28 08:47:37;;;;;;;7.30;5.70;;;;;;;16.50;45.70;99265.41;109581;1251;58071;-70
2023/04/28 08:50:05;;;;;;;6.80;5.90;;;;;;;16.41;45.60;99260.42;109614;1251;66964;-70
2023/04/28 08:52:32;;;;;;;8.40;6.10;;;;;;;16.39;44.81;99257.38;109243;1251;58917;-70
2023/04/28 08:55:01;;;;;;;9.30;5.80;;;;;;;16.38;44.16;99257.61;109502;1251;64499;-71
2023/04/28 08:57:37;;;;;;;7.00;5.80;;;;;;;16.38;43.95;99255.44;109593;1251;58503;-71
2023/04/28 09:00:05;;;;;;;6.60;5.90;;;;;;;16.31;43.22;99253.23;109321;1251;58278;-71
2023/04/28 09:02:31;;;;;;;7.70;6.50;;;;;;;16.23;43.09;99254.13;109583;1251;65230;-71
2023/04/28 09:04:58;;;;;;;7.50;5.50;;;;;;;16.25;43.05;99254.41;109591;1251;59972;-72
2023/04/28 09:07:24;;;;;;;8.40;5.70;;;;;;;16.27;42.91;99249.48;109591;1251;63741;-71
2023/04/28 09:10:15;;;;;;;12.50;7.50;;;;;;;16.33;43.16;99243.92;109569;1250;58091;-71
2023/04/28 09:12:42;;;;;;;7.00;5.40;;;;;;;16.48;42.63;99238.69;109610;1251;58324;-70
2023/04/28 09:15:09;;;;;;;27.00;20.90;;;;;;;16.43;41.45;99237.98;109438;1251;65196;-71
2023/04/28 09:17:49;;;;;;;7.10;6.20;;;;;;;16.40;42.19;99235.39;109526;1250;58848;-71
2023/04/28 09:20:23;;;;;;;22.50;20.10;;;;;;;16.57;42.52;99233.86;109594;1251;62847;-71
2023/04/28 09:22:51;;;;;;;8.50;6.00;;;;;;;16.70;41.80;99234.21;109557;1251;58180;-71
2023/04/28 09:25:21;;;;;;;9.60;8.00;;;;;;;16.67;40.88;99231.23;109555;1251;59345;-71
2023/04/28 09:27:48;;;;;;;7.90;7.10;;;;;;;16.58;41.03;99229.38;109509;1251;65257;-71
2023/04/28 09:30:15;;;;;;;6.80;5.50;;;;;;;16.70;42.04;99226.69;109541;1251;60115;-71
2023/04/28 09:32:42;;;;;;;5.90;5.30;;;;;;;16.86;41.99;99227.25;109602;1251;62823;-71
2023/04/28 09:35:09;;;;;;;5.70;4.60;;;;;;;16.95;40.64;99219.60;109557;1251;58117;-71
2023/04/28 09:37:36;;;;;;;5.90;4.70;;;;;;;16.94;40.82;99215.97;109531;1251;58275;-72
2023/04/28 09:40:08;;;;;;;5.80;4.90;;;;;;;17.03;40.93;99211.38;109575;1251;65476;-72
2023/04/28 09:42:37;;;;;;;7.50;4.80;;;;;;;17.10;40.30;99204.10;109631;1251;60032;-71
2023/04/28 09:45:11;;;;;;;5.20;4.00;;;;;;;17.12;40.64;99200.28;109606;1251;64056;-70
2023/04/28 09:47:43;;;;;;;8.40;4.10;;;;;;;17.26;40.86;99200.70;109399;1253;58215;-70
2023/04/28 09:50:13;;;;;;;7.00;5.00;;;;;;;17.37;40.88;99196.64;109539;1253;58106;-70
2023/04/28 09:52:41;;;;;;;6.30;4.40;;;;;;;17.29;40.06;99190.48;109186;1257;64924;-70
2023/04/28 09:55:09;;;;;;;6.30;4.80;;;;;;;17.13;39.72;99183.87;109012;1256;281960;-71
2023/04/28 09:57:37;;;;;;;7.70;4.60;;;;;;;17.05;40.44;99185.13;108973;1255;64061;-70
2023/04/28 10:00:07;;;;;;;6.80;4.30;;;;;;;17.15;41.07;99180.81;109193;1256;58139;-70
2023/04/28 10:02:35;;;;;;;;;;;;;;;17.21;40.45;99177.38;109120;1256;58142;-71
2023/04/28 10:05:02;;;;;;;6.20;4.30;;;;;;;17.26;41.08;99174.05;109084;1256;65080;-71
2023/04/28 10:07:33;;;;;;;7.00;4.40;;;;;;;17.33;40.82;99172.11;109107;1256;60011;-71
2023/04/28 10:10:00;;;;;;;6.20;5.00;;;;;;;17.41;41.10;99167.66;109203;1256;62866;-71
2023/04/28 10:12:27;;;;;;;7.30;4.60;;;;;;;17.51;41.02;99170.29;109190;1255;58260;-71
2023/04/28 10:14:54;;;;;;;7.90;5.60;;;;;;;17.58;40.70;99165.39;109096;1255;58867;-71
2023/04/28 10:17:21;;;;;;;5.20;4.00;;;;;;;17.63;40.43;99160.98;109235;1256;58643;-71
2023/04/28 10:19:50;;;;;;;5.00;4.30;;;;;;;17.60;39.57;99159.39;109130;1257;60276;-72
2023/04/28 10:22:53;;;;;;;6.80;4.30;;;;;;;17.45;38.82;99150.56;109080;1255;64057;-71
2023/04/28 10:25:29;;;;;;;6.00;4.30;;;;;;;17.32;38.77;99149.80;109313;1253;58193;-71
2023/04/28 10:27:58;;;;;;;6.20;3.80;;;;;;;17.31;38.50;99148.78;109366;1253;58130;-71
2023/04/28 10:30:27;;;;;;;7.00;4.30;;;;;;;17.29;38.45;99142.71;109277;1252;65211;-71
2023/04/28 10:33:12;;;;;;;5.10;4.00;;;;;;;17.27;38.49;99135.57;109368;1252;60155;-71
2023/04/28 10:35:44;;;;;;;5.60;4.00;;;;;;;17.32;38.54;99131.83;109595;1253;63768;-71
2023/04/28 10:38:20;;;;;;;7.00;4.00;;;;;;;17.39;38.51;99130.11;109522;1253;58253;-71
2023/04/28 10:40:48;;;;;;;6.20;3.90;;;;;;;17.36;38.18;99120.90;109286;1253;58224;-72
2023/04/28 10:43:24;;;;;;;6.60;4.00;;;;;;;17.39;39.34;99119.58;109604;1251;65315;-72
2023/04/28 10:45:55;;;;;;;6.30;3.90;;;;;;;17.57;39.75;99117.48;109614;1250;61458;-71
2023/04/28 10:48:43;;;;;;;7.40;3.90;;;;;;;17.72;39.26;99110.64;109589;1252;64091;-72
2023/04/28 10:51:11;;;;;;;7.90;4.60;;;;;;;17.72;38.53;99109.02;109533;1252;58138;-71
2023/04/28 10:56:11;;;;;;;6.60;4.10;;;;;;;17.82;39.04;99104.20;109598;1253;65235;-72
2023/04/28 10:58:41;;;;;;;6.00;4.00;;;;;;;17.94;38.95;99097.16;109524;1251;60096;-71
2023/04/28 11:01:24;;;;;;;6.30;4.40;;;;;;;17.99;39.07;99092.85;109532;1251;63777;-72
2023/04/28 11:06:39;;;;;;;3.70;3.10;;;;;;;18.20;38.36;99080.39;109570;1251;58883;-72
2023/04/28 11:09:14;;;;;;;5.70;3.60;;;;;;;18.32;38.13;99079.83;109535;1251;65569;-72
2023/04/28 11:11:54;;;;;;;4.90;3.60;;;;;;;18.38;38.24;99079.02;109594;1251;60230;-70
2023/04/28 11:14:21;;;;;;;;;;;;;;;18.44;38.55;99083.46;109540;1252;64253;-70
2023/04/28 11:16:52;;;;;;;5.30;3.40;;;;;;;18.49;38.63;99075.95;109603;1251;58196;-71
2023/04/28 11:19:23;;;;;;;6.30;3.90;;;;;;;18.55;38.70;99075.20;109580;1251;58242;-71
2023/04/28 11:21:51;;;;;;;5.90;3.60;;;;;;;18.57;38.12;99074.67;109647;1251;64025;-72
2023/04/28 11:24:18;;;;;;;5.90;4.10;;;;;;;18.57;38.50;99069.40;109368;1251;58943;-72
2023/04/28 11:26:45;;;;;;;7.80;4.00;;;;;;;18.62;37.96;99070.31;109583;1253;62839;-71
2023/04/28 11:29:13;;;;;;;7.50;4.10;;;;;;;18.59;37.49;99064.48;109559;1251;58101;-72
2023/04/28 11:31:47;;;;;;;5.60;4.10;;;;;;;18.49;36.88;99056.54;109593;1251;58321;-73
2023/04/28 11:34:19;;;;;;;6.00;4.00;;;;;;;18.12;35.67;99053.48;109600;1251;65229;-72
2023/04/28 11:36:45;;;;;;;4.50;4.00;;;;;;;17.91;36.32;99054.99;109536;1251;58723;-71
2023/04/28 11:39:13;;;;;;;5.80;4.00;;;;;;;17.86;35.72;99051.15;109651;1251;64077;-71
2023/04/28 11:41:41;;;;;;;4.90;4.00;;;;;;;17.73;35.27;99046.60;109566;1251;58139;-72
2023/04/28 11:44:15;;;;;;;4.80;3.60;;;;;;;17.71;35.53;99045.02;109553;1251;58216;-72
2023/04/28 11:46:59;;;;;;;5.70;4.10;;;;;;;17.73;35.62;99047.02;109595;1251;65234;-72
2023/04/28 11:49:27;;;;;;;7.30;4.40;;;;;;;17.84;36.09;99046.64;109149;1251;59875;-71
2023/04/28 11:51:56;;;;;;;8.30;4.10;;;;;;;17.98;36.14;99041.19;109571;1251;62505;-72
2023/04/28 11:54:27;;;;;;;5.30;3.70;;;;;;;18.10;35.94;99036.09;109368;1251;58271;-72
2023/04/28 11:56:56;;;;;;;5.20;3.90;;;;;;;18.21;36.53;99037.67;109595;1251;58032;-71
2023/04/28 11:59:32;;;;;;;6.00;3.90;;;;;;;18.38;36.85;99036.21;109597;1251;63941;-71
2023/04/28 12:02:05;;;;;;;6.80;3.80;;;;;;;18.43;36.60;99032.27;109523;1251;60163;-73
2023/04/28 12:04:36;;;;;;;6.00;4.00;;;;;;;18.42;36.72;99027.73;109497;1251;62884;-72
2023/04/28 12:07:03;;;;;;;8.30;5.60;;;;;;;18.43;36.77;99027.10;109593;1251;58154;-73
2023/04/28 12:09:31;;;;;;;6.70;5.00;;;;;;;18.38;36.41;99024.81;109581;1251;58082;-73
2023/04/28 12:12:03;;;;;;;5.90;4.00;;;;;;;18.30;35.71;99022.80;109341;1251;65324;-73
2023/04/28 12:14:34;;;;;;;5.90;3.90;;;;;;;18.20;35.57;99018.94;109585;1251;59017;-71
2023/04/28 12:17:01;;;;;;;3.80;3.40;;;;;;;18.26;36.23;99014.36;109616;1251;63785;-72
2023/04/28 12:19:27;;;;;;;5.80;4.00;;;;;;;18.32;35.83;99008.59;109392;1251;58420;-71
2023/04/28 12:22:16;;;;;;;5.40;4.00;;;;;;;18.25;34.83;99003.49;109616;1251;58599;-72
2023/04/28 12:28:24;;;;;;;7.80;4.60;;;;;;;18.12;35.75;99001.67;109615;1251;59542;-72
2023/04/28 12:31:03;;;;;;;6.50;4.20;;;;;;;18.26;36.78;98999.12;109544;1251;62824;-71
2023/04/28 12:33:29;;;;;;;6.70;3.90;;;;;;;18.44;36.62;98992.12;109363;1251;58116;-72
2023/04/28 12:35:57;;;;;;;7.10;4.20;;;;;;;18.57;36.56;98989.48;109306;1251;58181;-72
2023/04/28 12:38:23;;;;;;;5.40;3.70;;;;;;;18.66;36.23;98984.61;109580;1252;66443;-72
2023/04/28 12:40:50;;;;;;;6.60;4.10;;;;;;;18.75;36.55;98980.53;109560;1251;58895;-72
2023/04/28 12:43:17;;;;;;;5.10;3.60;;;;;;;18.86;36.69;98976.86;109564;1251;64081;-72
2023/04/28 12:45:43;;;;;;;4.20;3.20;;;;;;;18.99;36.34;98973.25;109583;1251;58392;-72
2023/04/28 12:48:10;;;;;;;4.50;3.60;;;;;;;18.99;35.47;98968.02;109602;1251;58219;-72
2023/04/28 12:50:37;;;;;;;7.10;5.10;;;;;;;18.89;35.06;98963.43;109529;1251;65335;-73
2023/04/28 12:53:03;;;;;;;5.50;4.20;;;;;;;18.83;34.78;98963.67;109576;1251;58202;-73
2023/04/28 12:55:30;;;;;;;5.70;3.30;;;;;;;18.82;34.72;98954.92;109604;1251;64053;-72
2023/04/28 12:57:57;;;;;;;4.60;3.40;;;;;;;18.75;33.79;98953.39;109542;1252;58931;-73
2023/04/28 13:00:24;;;;;;;7.80;3.50;;;;;;;18.56;33.81;98947.71;109404;1253;58260;-73
2023/04/28 13:02:51;;;;;;;4.90;3.20;;;;;;;18.49;34.22;98944.28;109421;1253;65260;-73
2023/04/28 13:05:21;;;;;;;4.40;3.30;;;;;;;18.53;34.88;98939.52;109445;1253;60185;-76
2023/04/28 13:07:48;;;;;;;3.70;3.30;;;;;;;18.62;35.21;98938.99;109432;1253;62869;-72
2023/04/28 13:10:17;;;;;;;4.00;3.60;;;;;;;18.73;35.08;98936.43;109390;1253;58417;-72
2023/04/28 13:12:43;;;;;;;4.70;3.30;;;;;;;18.71;34.16;98930.39;109465;1253;58342;-71
2023/04/28 13:15:10;;;;;;;7.40;4.00;;;;;;;18.64;33.46;98929.77;109426;1253;58189;-72
2023/04/28 13:17:37;;;;;;;5.30;2.90;;;;;;;18.48;33.20;98929.08;109416;1253;60267;-72
2023/04/28 13:20:05;;;;;;;5.10;3.80;;;;;;;18.34;33.77;98922.41;109423;1253;62840;-72
2023/04/28 13:22:31;;;;;;;5.70;3.10;;;;;;;18.32;34.26;98917.30;109412;1253;58178;-71
2023/04/28 13:24:58;;;;;;;6.90;3.10;;;;;;;18.36;34.39;98914.78;109492;1253;58716;-71
2023/04/28 13:27:24;;;;;;;5.30;3.40;;;;;;;18.42;34.53;98906.77;109460;1253;58648;-73
2023/04/28 13:29:51;;;;;;;5.60;3.50;;;;;;;18.55;35.37;98905.20;109431;1253;58594;-72
2023/04/28 13:32:18;;;;;;;5.50;3.90;;;;;;;18.71;35.05;98900.70;109298;1253;63066;-72
2023/04/28 13:34:44;;;;;;;5.50;3.70;;;;;;;18.74;34.82;98897.87;109441;1253;58312;-71
2023/04/28 13:37:11;;;;;;;6.80;3.50;;;;;;;18.79;34.95;98898.61;109458;1253;58442;-72
2023/04/28 13:39:37;;;;;;;5.70;3.50;;;;;;;18.80;34.31;98898.64;109581;1251;58476;-71
2023/04/28 13:42:05;;;;;;;8.10;3.40;;;;;;;18.78;34.23;98896.58;109541;1251;60099;-71
2023/04/28 13:44:31;;;;;;;3.50;3.10;;;;;;;18.75;33.66;98892.00;109548;1251;64076;-71
2023/04/28 13:46:58;;;;;;;4.20;3.20;;;;;;;18.69;33.43;98890.42;109612;1251;58221;-72
2023/04/28 13:49:25;;;;;;;4.40;3.30;;;;;;;18.67;33.32;98885.73;109611;1251;58286;-72
2023/04/28 13:51:51;;;;;;;4.50;3.70;;;;;;;18.64;33.40;98882.05;109568;1251;65186;-72
2023/04/28 13:54:18;;;;;;;6.20;3.40;;;;;;;18.70;34.10;98882.25;109645;1250;58185;-71
2023/04/28 13:56:45;;;;;;;5.60;2.90;;;;;;;18.83;34.64;98875.92;109551;1253;58260;-72
2023/04/28 14:02:52;;;;;;;;;;;;;;;19.09;35.54;98863.83;109614;1251;58188;-73
2023/04/28 14:05:18;;;;;;;4.60;3.10;;;;;;;19.20;35.76;98864.29;109559;1251;58133;-72
2023/04/28 14:07:45;;;;;;;3.60;3.20;;;;;;;19.29;35.58;98866.02;109590;1251;60173;-72
2023/04/28 14:10:11;;;;;;;6.40;3.50;;;;;;;19.35;35.84;98867.04;109527;1251;64978;-72
2023/04/28 14:12:38;;;;;;;4.10;3.40;;;;;;;19.39;35.53;98864.78;109509;1251;58497;-73
2023/04/28 14:15:05;;;;;;;6.30;3.50;;;;;;;19.36;35.06;98865.98;109622;1253;58960;-71
2023/04/28 14:17:33;;;;;;;5.30;3.30;;;;;;;19.32;35.20;98866.98;109390;1256;65268;-72
2023/04/28 14:20:01;;;;;;;3.10;2.90;;;;;;;19.30;35.49;98866.65;109405;1251;58937;-72
2023/04/28 14:22:33;;;;;;;4.00;3.10;;;;;;;19.36;35.78;98866.73;109358;1251;64134;-72
2023/04/28 14:25:00;;;;;;;4.60;3.40;;;;;;;19.44;34.58;98863.93;109562;1251;58158;-72
2023/04/28 14:27:28;;;;;;;5.00;3.20;;;;;;;19.37;34.75;98859.23;109645;1251;58121;-72
2023/04/28 14:29:54;;;;;;;5.50;3.60;;;;;;;19.42;34.30;98859.60;109571;1251;65198;-71
2023/04/28 14:32:21;;;;;;;4.60;3.10;;;;;;;19.51;34.49;98856.25;109527;1253;61015;-72
2023/04/28 14:34:48;;;;;;;5.20;3.10;;;;;;;19.69;34.59;98850.97;109577;1251;62679;-72
2023/04/28 14:37:15;;;;;;;5.80;2.90;;;;;;;19.83;34.01;98852.73;109585;1251;58138;-71
2023/04/28 14:39:42;;;;;;;6.20;3.80;;;;;;;19.88;33.37;98850.02;109499;1251;58461;-72
2023/04/28 14:42:09;;;;;;;4.90;3.30;;;;;;;19.89;33.25;98847.54;109521;1251;65226;-72
2023/04/28 14:44:35;;;;;;;5.60;3.40;;;;;;;20.00;33.07;98844.42;109301;1251;58922;-72
2023/04/28 14:47:03;;;;;;;8.30;3.90;;;;;;;20.01;32.48;98841.31;109540;1250;58199;-72
2023/04/28 14:49:30;;;;;;;4.40;3.70;;;;;;;19.87;32.33;98842.43;109525;1251;58206;-72